Time;durP1;ratioP1;P1;durP2;ratioP2;P2;SDS_P1;SDS_P2;PMS_P1;PMS_P2;Temp;Humidity;BMP_temperature;BMP_pressure;BME280_temperature;BME280_humidity;BME280_pressure;Samples;Min_cycle;Max_cycle;Signal;HPM_P1;HPM_P2
2022/03/28 00:00:09;;;;;;;;;;;;;;;23.35;68.90;98018.19;575346;246;65553;-71
2022/03/28 00:02:41;;;;;;;;;;;;;;;23.35;69.43;98018.19;575332;246;67401;-70
2022/03/28 00:05:10;;;;;;;;;;;;;;;23.34;68.77;98019.27;575352;246;65431;-71
2022/03/28 00:07:37;;;;;;;;;;;;;;;23.32;68.73;98018.71;575407;246;64833;-71
2022/03/28 00:10:06;;;;;;;;;;;;;;;23.33;68.93;98014.98;575330;246;64816;-71
2022/03/28 00:12:34;;;;;;;;;;;;;;;23.32;68.76;98016.03;575281;246;65538;-71
2022/03/28 00:15:02;;;;;;;;;;;;;;;23.31;68.90;98009.86;575328;246;65141;-71
2022/03/28 00:17:31;;;;;;;;;;;;;;;23.31;69.26;98014.42;575275;246;66917;-71
2022/03/28 00:19:58;;;;;;;;;;;;;;;23.31;69.04;98015.23;576429;245;65533;-72
2022/03/28 00:22:28;;;;;;;;;;;;;;;23.31;68.83;98017.11;578166;245;46830;-70
2022/03/28 00:24:56;;;;;;;;;;;;;;;23.30;69.05;98012.80;578133;243;65182;-70
2022/03/28 00:27:23;;;;;;;;;;;;;;;23.30;69.37;98012.80;578073;243;63215;-70
2022/03/28 00:29:51;;;;;;;;;;;;;;;23.31;69.64;98006.38;578180;245;67272;-70
2022/03/28 00:32:18;;;;;;;;;;;;;;;23.29;69.26;98003.95;578166;245;67123;-70
2022/03/28 00:34:46;;;;;;;;;;;;;;;23.28;69.31;98005.03;578234;245;66007;-71
2022/03/28 00:37:13;;;;;;;;;;;;;;;23.29;69.18;98008.51;578132;243;67269;-70
2022/03/28 00:39:41;;;;;;;;;;;;;;;23.28;69.27;98014.95;578098;245;68039;-71
2022/03/28 00:42:09;;;;;;;;;;;;;;;23.26;69.23;98005.27;578143;245;65121;-70
2022/03/28 00:44:37;;;;;;;;;;;;;;;23.26;69.78;98010.64;578156;245;67327;-71
2022/03/28 00:47:04;;;;;;;;;;;;;;;23.26;69.39;98002.59;578215;245;64931;-70
2022/03/28 00:49:32;;;;;;;;;;;;;;;23.26;69.38;98010.64;578081;245;65560;-70
2022/03/28 00:52:00;;;;;;;;;;;;;;;23.25;69.75;98006.35;578181;245;67162;-71
2022/03/28 00:54:28;;;;;;;;;;;;;;;23.26;69.30;98007.16;578178;243;66801;-71
2022/03/28 00:56:55;;;;;;;;;;;;;;;23.24;69.83;98010.11;578207;245;65321;-70
2022/03/28 00:59:23;;;;;;;;;;;;;;;23.25;69.98;98017.08;578210;245;64920;-70
2022/03/28 01:01:50;;;;;;;;;;;;;;;23.24;69.30;98010.11;578187;245;65137;-70
2022/03/28 01:04:18;;;;;;;;;;;;;;;23.24;69.79;98010.11;578204;243;63046;-68
2022/03/28 01:06:45;;;;;;;;;;;;;;;23.24;69.83;98014.64;578171;243;65121;-68
2022/03/28 01:09:13;;;;;;;;;;;;;;;23.22;69.42;98006.88;578200;245;64887;-68
2022/03/28 01:11:42;;;;;;;;;;;;;;;23.21;69.75;98015.98;578221;245;63254;-68
2022/03/28 01:14:10;;;;;;;;;;;;;;;23.22;69.84;98016.80;578221;245;67291;-68
2022/03/28 01:19:07;;;;;;;;;;;;;;;23.20;69.60;98009.01;573347;245;64165;-69
2022/03/28 01:21:34;;;;;;;;;;;;;;;23.20;69.46;98014.38;578052;245;66695;-69
2022/03/28 01:24:01;;;;;;;;;;;;;;;23.20;70.23;98008.20;578184;245;67073;-69
2022/03/28 01:26:29;;;;;;;;;;;;;;;23.19;70.25;98012.77;578060;245;65357;-69
2022/03/28 01:28:57;;;;;;;;;;;;;;;23.18;69.91;98011.14;578134;245;67993;-69
2022/03/28 01:31:24;;;;;;;;;;;;;;;23.18;69.51;98016.50;578125;245;66756;-69
2022/03/28 01:33:52;;;;;;;;;;;;;;;23.18;69.74;98013.02;578106;243;64949;-69
2022/03/28 01:36:25;;;;;;;;;;;;;;;23.18;70.29;98015.70;578151;243;64891;-69
2022/03/28 01:38:52;;;;;;;;;;;;;;;23.17;70.05;98017.58;578188;243;64794;-69
2022/03/28 01:41:20;;;;;;;;;;;;;;;23.17;69.99;98022.14;578222;245;63038;-69
2022/03/28 01:43:47;;;;;;;;;;;;;;;23.16;69.98;98026.70;578167;245;64885;-69
2022/03/28 01:46:16;;;;;;;;;;;;;;;23.16;69.97;98023.19;578178;243;64840;-69
2022/03/28 01:48:43;;;;;;;;;;;;;;;23.16;69.40;98023.19;578098;243;65406;-69
2022/03/28 01:51:11;;;;;;;;;;;;;;;23.15;69.90;98024.27;578209;245;67141;-69
2022/03/28 01:53:38;;;;;;;;;;;;;;;23.14;69.95;98018.11;578160;245;66942;-68
2022/03/28 01:56:06;;;;;;;;;;;;;;;23.14;70.05;98020.78;578177;243;65219;-68
2022/03/28 01:58:33;;;;;;;;;;;;;;;23.14;70.03;98017.30;578211;245;67049;-68
2022/03/28 02:01:00;;;;;;;;;;;;;;;23.14;70.10;98014.63;578194;245;67159;-68
2022/03/28 02:03:28;;;;;;;;;;;;;;;23.14;70.02;98014.63;578240;245;65537;-68
2022/03/28 02:05:55;;;;;;;;;;;;;;;23.13;70.43;98005.74;578184;245;67205;-68
2022/03/28 02:08:23;;;;;;;;;;;;;;;23.12;70.53;98004.14;578219;245;66653;-68
2022/03/28 02:10:50;;;;;;;;;;;;;;;23.13;70.72;98007.62;578100;245;65461;-68
2022/03/28 02:13:18;;;;;;;;;;;;;;;23.11;70.82;98005.22;578209;243;67072;-68
2022/03/28 02:15:45;;;;;;;;;;;;;;;23.11;70.54;98010.59;578154;245;67185;-68
2022/03/28 02:18:13;;;;;;;;;;;;;;;23.10;70.20;98008.95;578179;245;65418;-68
2022/03/28 02:20:40;;;;;;;;;;;;;;;23.11;70.55;98012.44;578116;245;67093;-68
2022/03/28 02:23:08;;;;;;;;;;;;;;;23.09;71.11;98010.03;578161;245;64868;-68
2022/03/28 02:25:37;;;;;;;;;;;;;;;23.10;70.54;98010.83;578161;245;63158;-68
2022/03/28 02:28:05;;;;;;;;;;;;;;;23.08;70.95;98003.06;578192;245;68251;-68
2022/03/28 02:30:32;;;;;;;;;;;;;;;23.07;70.87;98004.11;578282;245;66801;-70
2022/03/28 02:33:00;;;;;;;;;;;;;;;23.07;70.61;98008.67;578217;243;65470;-68
2022/03/28 02:35:27;;;;;;;;;;;;;;;23.07;71.13;98000.63;578192;245;66915;-70
2022/03/28 02:37:57;;;;;;;;;;;;;;;23.06;70.88;97994.47;578147;245;67215;-71
2022/03/28 02:40:24;;;;;;;;;;;;;;;23.06;70.74;98004.39;578149;245;65576;-71
2022/03/28 02:42:51;;;;;;;;;;;;;;;23.06;71.30;98007.07;578172;243;67328;-71
2022/03/28 02:45:19;;;;;;;;;;;;;;;23.05;71.60;98003.56;578221;243;66893;-71
2022/03/28 02:47:46;;;;;;;;;;;;;;;23.04;71.82;98002.76;578169;245;65390;-68
2022/03/28 02:50:14;;;;;;;;;;;;;;;23.04;70.80;97999.28;578173;245;67109;-68
2022/03/28 02:52:41;;;;;;;;;;;;;;;23.04;71.87;98001.95;578161;245;66898;-68
2022/03/28 02:55:09;;;;;;;;;;;;;;;23.01;71.17;97999.80;578233;245;65698;-68
2022/03/28 02:57:37;;;;;;;;;;;;;;;23.02;71.58;98002.20;578159;245;67984;-68
2022/03/28 03:00:07;;;;;;;;;;;;;;;23.03;71.74;98003.03;578072;245;67059;-68
2022/03/28 03:02:35;;;;;;;;;;;;;;;23.02;70.99;97993.36;578082;244;65617;-68
2022/03/28 03:05:02;;;;;;;;;;;;;;;23.02;71.27;97996.04;578041;245;67142;-68
2022/03/28 03:07:30;;;;;;;;;;;;;;;23.01;70.54;97997.13;578186;245;66836;-68
2022/03/28 03:09:57;;;;;;;;;;;;;;;23.00;70.72;97993.64;578156;245;65236;-68
2022/03/28 03:12:25;;;;;;;;;;;;;;;23.00;70.67;97987.47;578096;245;67242;-68
2022/03/28 03:14:53;;;;;;;;;;;;;;;23.01;71.18;97991.76;578126;245;65790;-68
2022/03/28 03:17:20;;;;;;;;;;;;;;;23.00;71.78;97995.52;578149;245;63057;-68
2022/03/28 03:19:48;;;;;;;;;;;;;;;23.00;71.21;97998.20;577247;245;64652;-68
2022/03/28 03:22:15;;;;;;;;;;;;;;;22.99;70.92;97996.56;575345;246;64674;-68
2022/03/28 03:24:43;;;;;;;;;;;;;;;22.98;70.61;98001.12;575368;246;63094;-70
2022/03/28 03:27:11;;;;;;;;;;;;;;;22.99;70.81;97996.56;575309;246;64874;-70
2022/03/28 03:29:39;;;;;;;;;;;;;;;22.98;70.79;98001.12;575341;246;67351;-70
2022/03/28 03:32:06;;;;;;;;;;;;;;;22.98;71.24;98000.33;575350;246;65397;-70
2022/03/28 03:34:35;;;;;;;;;;;;;;;22.98;71.18;98000.33;575409;246;67298;-70
2022/03/28 03:37:04;;;;;;;;;;;;;;;22.97;71.02;98006.73;575400;246;68056;-70
2022/03/28 03:39:32;;;;;;;;;;;;;;;22.96;71.38;98002.45;575379;244;65686;-70
2022/03/28 03:41:59;;;;;;;;;;;;;;;22.96;71.90;98003.25;575313;246;67275;-70
2022/03/28 03:44:27;;;;;;;;;;;;;;;22.96;70.94;97999.77;575418;246;66739;-73
2022/03/28 03:46:54;;;;;;;;;;;;;;;22.95;70.85;98001.62;575445;246;65348;-72
2022/03/28 03:49:22;;;;;;;;;;;;;;;22.95;72.15;98001.62;575370;246;66530;-72
2022/03/28 03:51:49;;;;;;;;;;;;;;;22.95;71.45;97998.94;575431;246;67587;-72
2022/03/28 03:54:17;;;;;;;;;;;;;;;22.94;71.35;97999.98;575347;244;65405;-72
2022/03/28 03:56:44;;;;;;;;;;;;;;;22.93;70.42;98006.42;575465;246;64906;-71
2022/03/28 03:59:12;;;;;;;;;;;;;;;22.94;71.17;98001.86;575378;246;64521;-72
2022/03/28 04:01:39;;;;;;;;;;;;;;;22.93;71.02;98002.94;575313;244;66515;-72
2022/03/28 04:04:10;;;;;;;;;;;;;;;22.92;69.94;98004.82;575360;244;64361;-71
2022/03/28 04:06:36;;;;;;;;;;;;;;;22.93;70.53;98008.30;575350;244;64598;-72
2022/03/28 04:09:04;;;;;;;;;;;;;;;22.92;70.75;98012.06;575423;244;63019;-72
2022/03/28 04:11:31;;;;;;;;;;;;;;;22.90;71.39;98004.27;575282;246;67101;-72
2022/03/28 04:13:59;;;;;;;;;;;;;;;22.92;70.90;98006.70;575379;246;66937;-72
2022/03/28 04:16:26;;;;;;;;;;;;;;;22.91;71.04;97999.70;575341;246;65421;-72
2022/03/28 04:18:54;;;;;;;;;;;;;;;22.89;71.70;98005.34;575370;246;67661;-71
2022/03/28 04:21:21;;;;;;;;;;;;;;;22.88;70.71;98003.70;578019;244;66939;-71
2022/03/28 04:23:49;;;;;;;;;;;;;;;22.89;70.98;98009.88;578177;243;63062;-71
2022/03/28 04:26:20;;;;;;;;;;;;;;;22.88;70.96;98010.95;578163;245;67080;-71
2022/03/28 04:28:46;;;;;;;;;;;;;;;22.88;71.62;98009.07;571364;245;67054;-72
2022/03/28 04:31:15;;;;;;;;;;;;;;;22.87;70.85;98015.51;578183;245;65353;-72
2022/03/28 04:33:42;;;;;;;;;;;;;;;22.86;71.87;98013.88;578151;245;63997;-72
2022/03/28 04:36:10;;;;;;;;;;;;;;;22.87;71.65;98014.70;578214;245;64429;-72
2022/03/28 04:38:37;;;;;;;;;;;;;;;22.87;71.51;98014.70;578140;245;63051;-72
2022/03/28 04:41:05;;;;;;;;;;;;;;;22.86;71.01;98018.43;578146;245;67089;-72
2022/03/28 04:43:32;;;;;;;;;;;;;;;22.85;71.58;98008.79;578133;243;67249;-72
2022/03/28 04:46:00;;;;;;;;;;;;;;;22.86;71.26;98018.43;578174;245;65130;-72
2022/03/28 04:48:28;;;;;;;;;;;;;;;22.83;71.45;98015.23;578198;245;65052;-72
2022/03/28 04:50:55;;;;;;;;;;;;;;;22.85;71.30;98024.88;578174;243;64901;-72
2022/03/28 04:53:22;;;;;;;;;;;;;;;22.84;72.00;98024.06;578190;245;63047;-72
2022/03/28 04:55:50;;;;;;;;;;;;;;;22.83;71.85;98025.12;578176;245;64993;-72
2022/03/28 04:58:18;;;;;;;;;;;;;;;22.82;71.21;98028.88;578200;245;66935;-72
2022/03/28 05:00:45;;;;;;;;;;;;;;;22.81;71.54;98036.11;578245;245;65376;-72
2022/03/28 05:03:13;;;;;;;;;;;;;;;22.82;71.61;98028.88;578202;245;66872;-72
2022/03/28 05:05:40;;;;;;;;;;;;;;;22.81;71.46;98030.75;578172;245;66876;-72
2022/03/28 05:08:08;;;;;;;;;;;;;;;22.81;71.69;98028.07;578144;245;65568;-72
2022/03/28 05:10:35;;;;;;;;;;;;;;;22.81;71.32;98033.43;578011;245;67462;-72
2022/03/28 05:13:03;;;;;;;;;;;;;;;22.80;71.68;98030.99;578209;245;66972;-72
2022/03/28 05:15:31;;;;;;;;;;;;;;;22.79;71.60;98030.19;578165;245;62907;-72
2022/03/28 05:18:01;;;;;;;;;;;;;;;22.79;71.38;98030.19;578229;245;67745;-72
2022/03/28 05:20:28;;;;;;;;;;;;;;;22.79;71.51;98032.88;578123;245;67325;-72
2022/03/28 05:22:55;;;;;;;;;;;;;;;22.78;71.36;98036.63;578186;245;65415;-72
2022/03/28 05:25:23;;;;;;;;;;;;;;;22.79;70.87;98032.88;578259;245;67206;-72
2022/03/28 05:27:51;;;;;;;;;;;;;;;22.79;72.16;98034.75;578299;245;66919;-72
2022/03/28 05:30:19;;;;;;;;;;;;;;;22.78;71.49;98030.44;578265;245;63768;-72
2022/03/28 05:32:46;;;;;;;;;;;;;;;22.76;72.20;98022.67;578164;243;67051;-72
2022/03/28 05:35:14;;;;;;;;;;;;;;;22.78;71.62;98027.76;578107;243;64481;-72
2022/03/28 05:37:41;;;;;;;;;;;;;;;22.76;71.48;98028.03;578117;245;65158;-73
2022/03/28 05:40:10;;;;;;;;;;;;;;;22.77;72.35;98020.80;578142;245;67106;-72
2022/03/28 05:42:38;;;;;;;;;;;;;;;22.76;71.82;98017.31;578178;245;65062;-72
2022/03/28 05:45:06;;;;;;;;;;;;;;;22.75;71.53;98023.75;578248;245;62870;-72
2022/03/28 05:47:33;;;;;;;;;;;;;;;22.75;71.80;98023.75;578163;245;67067;-72
2022/03/28 05:50:01;;;;;;;;;;;;;;;22.75;71.89;98022.92;577688;245;67806;-72
2022/03/28 05:52:28;;;;;;;;;;;;;;;22.74;72.92;98019.44;578162;245;66298;-73
2022/03/28 05:54:56;;;;;;;;;;;;;;;22.73;72.32;98023.19;577949;245;67113;-71
2022/03/28 05:57:23;;;;;;;;;;;;;;;22.73;71.94;98019.71;578144;245;67326;-71
2022/03/28 05:59:51;;;;;;;;;;;;;;;22.73;72.26;98017.84;578162;245;65531;-72
2022/03/28 06:02:18;;;;;;;;;;;;;;;22.73;72.25;98014.35;578185;243;68251;-71
2022/03/28 06:04:47;;;;;;;;;;;;;;;22.73;72.36;98012.47;578173;245;64910;-70
2022/03/28 06:07:14;;;;;;;;;;;;;;;22.70;71.77;98012.99;578190;245;65494;-69
2022/03/28 06:09:42;;;;;;;;;;;;;;;22.69;71.96;98011.36;578142;245;67028;-70
2022/03/28 06:12:10;;;;;;;;;;;;;;;22.68;72.01;98012.44;578125;245;66901;-69
2022/03/28 06:14:37;;;;;;;;;;;;;;;22.66;72.20;98011.08;578177;245;63952;-71
2022/03/28 06:17:05;;;;;;;;;;;;;;;22.65;70.68;98006.80;578109;245;65496;-66
2022/03/28 06:19:32;;;;;;;;;;;;;;;22.63;71.28;98009.72;578158;245;67013;-72
2022/03/28 06:22:00;;;;;;;;;;;;;;;22.64;71.13;98011.32;578173;243;65561;-72
2022/03/28 06:24:27;;;;;;;;;;;;;;;22.66;70.84;98014.55;578142;245;67371;-71
2022/03/28 06:26:54;;;;;;;;;;;;;;;22.67;71.43;98010.00;578078;245;66862;-70
2022/03/28 06:29:22;;;;;;;;;;;;;;;22.65;66.34;98012.16;578161;245;63119;-69
2022/03/28 06:31:49;;;;;;;;;;;;;;;22.66;68.52;98011.87;578112;245;63997;-62
2022/03/28 06:34:17;;;;;;;;;;;;;;;22.65;70.45;98012.95;578163;245;63972;-68
2022/03/28 06:36:45;;;;;;;;;;;;;;;22.66;70.84;98019.11;578200;245;63073;-68
2022/03/28 06:39:14;;;;;;;;;;;;;;;22.64;70.92;98015.88;578160;245;67241;-68
2022/03/28 06:41:41;;;;;;;;;;;;;;;22.65;71.49;98012.16;578185;245;65014;-67
2022/03/28 06:44:11;;;;;;;;;;;;;;;22.64;70.22;98016.67;578165;245;65488;-68
2022/03/28 06:46:39;;;;;;;;;;;;;;;22.64;70.98;98011.32;578065;245;68409;-68
2022/03/28 06:49:07;;;;;;;;;;;;;;;22.65;70.67;98012.95;578119;245;67117;-69
2022/03/28 06:51:35;;;;;;;;;;;;;;;22.66;70.51;98014.55;578125;243;66342;-67
2022/03/28 06:54:04;;;;;;;;;;;;;;;22.66;70.15;98014.55;578100;245;67242;-70
2022/03/28 06:56:32;;;;;;;;;;;;;;;22.68;71.51;98008.95;578091;245;67143;-71
2022/03/28 06:58:59;;;;;;;;;;;;;;;22.68;71.65;98009.75;578072;245;65495;-70
2022/03/28 07:01:27;;;;;;;;;;;;;;;22.67;70.25;98005.47;578089;245;67105;-68
2022/03/28 07:03:55;;;;;;;;;;;;;;;22.68;70.54;98004.40;578152;243;66844;-69
2022/03/28 07:06:22;;;;;;;;;;;;;;;22.71;71.95;98003.87;577416;245;63689;-68
2022/03/28 07:08:51;;;;;;;;;;;;;;;22.71;72.02;98003.87;577769;245;64712;-67
2022/03/28 07:11:19;;;;;;;;;;;;;;;22.72;70.95;98002.80;575372;245;67342;-69
2022/03/28 07:13:46;;;;;;;;;;;;;;;22.73;70.99;97992.91;571593;248;65384;-68
2022/03/28 07:16:14;;;;;;;;;;;;;;;22.76;70.50;97989.72;573301;245;67238;-69
2022/03/28 07:18:41;;;;;;;;;;;;;;;22.78;70.60;97995.60;577790;245;64736;-67
2022/03/28 07:21:09;;;;;;;;;;;;;;;22.79;70.00;97998.03;584657;242;63262;-68
2022/03/28 07:23:37;;;;;;;;;;;;;;;22.80;69.51;97994.28;585014;242;67079;-68
2022/03/28 07:26:04;;;;;;;;;;;;;;;22.83;69.93;97998.31;585697;242;65063;-68
2022/03/28 07:28:32;;;;;;;;;;;;;;;22.85;69.97;97992.71;585841;242;63285;-68
2022/03/28 07:31:01;;;;;;;;;;;;;;;22.85;69.54;97990.83;585851;242;67078;-69
2022/03/28 07:33:28;;;;;;;;;;;;;;;22.87;69.82;97998.63;585893;242;64996;-67
2022/03/28 07:35:56;;;;;;;;;;;;;;;22.89;69.13;97991.94;585884;242;63227;-68
2022/03/28 07:38:23;;;;;;;;;;;;;;;22.89;69.67;97985.75;585899;242;65257;-68
2022/03/28 07:40:51;;;;;;;;;;;;;;;22.90;69.98;97982.82;585835;242;64958;-69
2022/03/28 07:43:18;;;;;;;;;;;;;;;22.93;69.29;97986.86;585904;242;63267;-69
2022/03/28 07:45:48;;;;;;;;;;;;;;;22.93;69.30;97986.86;585904;242;65265;-69
2022/03/28 07:48:15;;;;;;;;;;;;;;;22.95;69.66;97985.53;585890;242;64897;-70
2022/03/28 07:50:44;;;;;;;;;;;;;;;22.96;69.22;97975.64;585889;242;63203;-67
2022/03/28 07:53:12;;;;;;;;;;;;;;;22.98;69.45;97982.36;585894;242;63458;-70
2022/03/28 07:55:39;;;;;;;;;;;;;;;22.99;68.58;97972.44;585857;242;64596;-70
2022/03/28 07:58:08;;;;;;;;;;;;;;;23.00;69.08;97966.83;585727;242;65210;-71
2022/03/28 08:00:37;;;;;;;;;;;;;;;23.02;69.12;97966.55;585876;242;66809;-72
2022/03/28 08:03:04;;;;;;;;;;;;;;;23.02;67.44;97964.67;585868;242;64578;-71
2022/03/28 08:05:32;;;;;;;;;;;;;;;23.04;69.25;97967.91;585780;242;63124;-70
2022/03/28 08:07:59;;;;;;;;;;;;;;;23.06;68.97;97961.50;585895;242;64578;-70
2022/03/28 08:10:27;;;;;;;;;;;;;;;23.07;68.26;97965.78;585800;242;64603;-69
2022/03/28 08:12:54;;;;;;;;;;;;;;;23.09;68.90;97963.65;585810;242;63141;-68
2022/03/28 08:15:22;;;;;;;;;;;;;;;23.09;70.15;97961.77;585778;242;64561;-70
2022/03/28 08:17:50;;;;;;;;;;;;;;;23.09;69.14;97958.29;585864;242;67659;-70
2022/03/28 08:20:18;;;;;;;;;;;;;;;23.11;68.88;97951.59;585701;242;63115;-67
2022/03/28 08:22:49;;;;;;;;;;;;;;;23.10;68.26;97949.97;585690;242;67083;-71
2022/03/28 08:25:16;;;;;;;;;;;;;;;23.10;68.13;97944.61;585773;242;68210;-68
2022/03/28 08:27:46;;;;;;;;;;;;;;;23.11;68.58;97943.55;585841;242;46733;-69
2022/03/28 08:30:13;;;;;;;;;;;;;;;23.11;67.34;97946.23;585759;242;64926;-69
2022/03/28 08:32:42;;;;;;;;;;;;;;;23.11;67.78;97938.19;585817;242;67231;-75
2022/03/28 08:35:10;;;;;;;;;;;;;;;23.13;67.07;97936.03;585804;242;66514;-63
2022/03/28 08:37:38;;;;;;;;;;;;;;;23.13;67.15;97933.35;585817;242;67260;-67
2022/03/28 08:40:09;;;;;;;;;;;;;;;23.13;67.14;97933.35;585794;242;64971;-64
2022/03/28 08:42:36;;;;;;;;;;;;;;;23.13;67.14;97927.19;585881;242;65326;-63
2022/03/28 08:45:04;;;;;;;;;;;;;;;23.13;67.48;97927.98;585757;242;67063;-63
2022/03/28 08:47:32;;;;;;;;;;;;;;;23.12;66.82;97920.23;585888;242;67151;-63
2022/03/28 08:50:00;;;;;;;;;;;;;;;23.12;66.74;97904.13;585878;242;65569;-63
2022/03/28 08:52:28;;;;;;;;;;;;;;;23.14;66.86;97907.37;585770;242;65344;-65
2022/03/28 08:54:55;;;;;;;;;;;;;;;23.14;66.39;97905.48;585911;242;66920;-64
2022/03/28 08:57:23;;;;;;;;;;;;;;;23.15;66.91;97908.97;585832;242;63297;-64
2022/03/28 08:59:50;;;;;;;;;;;;;;;23.15;66.26;97908.97;585720;242;67313;-62
2022/03/28 09:02:34;;;;;;;;;;;;;;;23.16;65.67;97898.00;585753;242;66950;-62
2022/03/28 09:05:02;;;;;;;;;;;;;;;23.17;65.00;97896.91;585805;242;65273;-63
2022/03/28 09:07:30;;;;;;;;;;;;;;;23.18;65.66;97898.52;585979;242;67217;-62
2022/03/28 09:09:59;;;;;;;;;;;;;;;23.18;65.26;97890.47;586115;242;67031;-63
2022/03/28 09:12:26;;;;;;;;;;;;;;;23.18;65.16;97887.78;585934;242;63074;-63
2022/03/28 09:14:58;;;;;;;;;;;;;;;23.19;65.73;97886.73;585962;242;64896;-64
2022/03/28 09:17:26;;;;;;;;;;;;;;;23.19;64.72;97878.69;586037;242;65096;-68
2022/03/28 09:19:59;;;;;;;;;;;;;;;23.22;64.01;97877.36;582321;242;65160;-68
2022/03/28 09:22:29;;;;;;;;;;;;;;;23.25;64.70;97877.62;575423;246;67284;-69
2022/03/28 09:24:58;;;;;;;;;;;;;;;23.26;64.91;97873.86;575501;246;67108;-74
2022/03/28 09:27:30;;;;;;;;;;;;;;;23.27;64.06;97871.98;575282;245;65318;-67
2022/03/28 09:30:05;;;;;;;;;;;;;;;23.30;64.50;97867.97;575496;246;67323;-67
2022/03/28 09:32:35;;;;;;;;;;;;;;;23.32;63.53;97861.27;575403;246;66792;-68
2022/03/28 09:35:08;;;;;;;;;;;;;;;23.34;63.07;97859.13;575334;244;65397;-68
2022/03/28 09:37:50;;;;;;;;;;;;;;;23.36;64.00;97857.00;575468;246;65021;-65
2022/03/28 09:40:35;;;;;;;;;;;;;;;23.36;63.19;97854.31;575446;246;67396;-66
2022/03/28 09:43:07;;;;;;;;;;;;;;;23.38;64.07;97845.98;575294;246;65575;-66
2022/03/28 09:45:37;;;;;;;;;;;;;;;23.39;63.69;97844.94;575249;244;67160;-66
2022/03/28 09:48:06;;;;;;;;;;;;;;;23.39;64.15;97843.05;575469;246;67074;-66
2022/03/28 09:50:36;;;;;;;;;;;;;;;23.40;64.34;97841.17;575423;246;62886;-67
2022/03/28 09:53:15;;;;;;;;;;;;;;;23.40;63.73;97833.12;575515;246;64632;-66
2022/03/28 09:55:50;;;;;;;;;;;;;;;23.41;64.12;97834.75;575433;244;67892;-68
2022/03/28 09:58:35;;;;;;;;;;;;;;;23.41;64.23;97827.50;575509;246;65734;-67
2022/03/28 10:01:07;;;;;;;;;;;;;;;23.42;64.50;97822.94;575519;246;67008;-66
2022/03/28 10:03:36;;;;;;;;;;;;;;;23.42;64.72;97822.94;575393;246;67173;-69
2022/03/28 10:06:05;;;;;;;;;;;;;;;23.43;64.27;97813.80;575487;246;63108;-66
2022/03/28 10:08:34;;;;;;;;;;;;;;;23.42;63.90;97820.26;575453;246;67458;-67
2022/03/28 10:11:02;;;;;;;;;;;;;;;23.43;64.42;97805.76;575383;246;67492;-67
2022/03/28 10:13:30;;;;;;;;;;;;;;;23.44;64.54;97808.19;575459;242;63297;-67
2022/03/28 10:15:59;;;;;;;;;;;;;;;23.44;63.94;97804.70;575486;246;65138;-67
2022/03/28 10:18:30;;;;;;;;;;;;;;;23.45;63.85;97798.26;575482;244;48936;-65
2022/03/28 10:21:02;;;;;;;;;;;;;;;23.46;63.68;97797.17;575415;245;63284;-64
2022/03/28 10:23:33;;;;;;;;;;;;;;;23.47;63.44;97794.23;575368;246;67227;-65
2022/03/28 10:26:02;;;;;;;;;;;;;;;23.47;64.44;97791.55;575318;244;67054;-65
2022/03/28 10:28:29;;;;;;;;;;;;;;;23.48;63.97;97784.30;575022;246;65395;-65
2022/03/28 10:31:16;;;;;;;;;;;;;;;23.49;63.72;97786.73;575062;246;67305;-65
2022/03/28 10:33:49;;;;;;;;;;;;;;;23.48;63.66;97777.06;574631;246;64706;-66
2022/03/28 10:36:24;;;;;;;;;;;;;;;23.50;63.71;97771.44;575313;245;65297;-66
2022/03/28 10:38:52;;;;;;;;;;;;;;;23.51;63.29;97764.98;575281;245;68098;-66
2022/03/28 10:41:20;;;;;;;;;;;;;;;23.52;63.50;97768.47;575328;246;67066;-68
2022/03/28 10:43:48;;;;;;;;;;;;;;;23.52;63.90;97761.25;575368;246;65528;-67
2022/03/28 10:46:16;;;;;;;;;;;;;;;23.52;62.89;97755.05;575421;246;67113;-67
2022/03/28 10:48:46;;;;;;;;;;;;;;;23.52;62.93;97755.05;575428;246;66845;-67
2022/03/28 10:51:18;;;;;;;;;;;;;;;23.53;64.45;97754.00;575499;246;64903;-67
2022/03/28 10:53:48;;;;;;;;;;;;;;;23.53;64.62;97746.75;575410;246;51799;-68
2022/03/28 10:56:17;;;;;;;;;;;;;;;23.53;63.26;97744.06;575417;244;67422;-66
2022/03/28 10:58:53;;;;;;;;;;;;;;;23.53;62.87;97733.34;575377;246;63057;-67
2022/03/28 11:01:25;;;;;;;;;;;;;;;23.53;62.99;97725.28;575404;246;67236;-67
2022/03/28 11:03:54;;;;;;;;;;;;;;;23.54;63.34;97734.93;575523;246;67311;-68
2022/03/28 11:06:40;;;;;;;;;;;;;;;23.54;63.48;97726.09;575467;246;65365;-68
2022/03/28 11:09:07;;;;;;;;;;;;;;;23.54;63.07;97723.41;575274;246;68054;-68
2022/03/28 11:11:35;;;;;;;;;;;;;;;23.54;64.21;97712.67;574454;246;67101;-66
2022/03/28 11:14:15;;;;;;;;;;;;;;;23.53;63.96;97706.50;575409;246;65476;-67
2022/03/28 11:16:53;;;;;;;;;;;;;;;23.53;63.28;97706.50;575265;246;67082;-67
2022/03/28 11:19:29;;;;;;;;;;;;;;;23.55;63.72;97700.88;575393;245;64723;-68
2022/03/28 11:21:57;;;;;;;;;;;;;;;23.54;63.89;97692.01;575431;246;65364;-69
2022/03/28 11:24:43;;;;;;;;;;;;;;;23.53;65.02;97694.98;575454;246;67321;-69
2022/03/28 11:27:11;;;;;;;;;;;;;;;23.52;64.69;97683.45;575462;246;64967;-69
2022/03/28 11:29:38;;;;;;;;;;;;;;;23.52;63.18;97687.98;575385;246;65404;-69
2022/03/28 11:32:10;;;;;;;;;;;;;;;23.51;63.94;97681.02;575179;246;68065;-69
2022/03/28 11:34:38;;;;;;;;;;;;;;;23.52;64.83;97679.94;575615;246;67109;-69
2022/03/28 11:37:06;;;;;;;;;;;;;;;23.50;63.83;97677.55;575618;246;66671;-69
2022/03/28 11:39:53;;;;;;;;;;;;;;;23.51;65.29;97676.45;575667;246;65134;-68
2022/03/28 11:42:22;;;;;;;;;;;;;;;23.51;63.90;97663.04;575581;246;66816;-69
2022/03/28 11:44:50;;;;;;;;;;;;;;;23.52;64.63;97667.34;575375;245;65266;-68
2022/03/28 11:47:18;;;;;;;;;;;;;;;23.50;61.17;97666.81;575543;246;65086;-67
2022/03/28 11:49:59;;;;;;;;;;;;;;;23.53;62.75;97668.15;575665;244;46569;-69
2022/03/28 11:52:28;;;;;;;;;;;;;;;23.54;63.41;97662.50;575466;246;65519;-68
2022/03/28 11:54:57;;;;;;;;;;;;;;;23.54;62.75;97657.12;575527;246;65029;-66
2022/03/28 12:00:13;;;;;;;;;;;;;;;23.54;63.42;97649.08;575643;246;66391;-67
2022/03/28 12:02:54;;;;;;;;;;;;;;;23.54;64.07;97643.72;575658;245;48845;-68
2022/03/28 12:05:26;;;;;;;;;;;;;;;23.53;63.69;97642.12;575566;246;66514;-67
2022/03/28 12:07:54;;;;;;;;;;;;;;;23.55;62.88;97645.34;575617;246;64097;-67
2022/03/28 12:10:32;;;;;;;;;;;;;;;23.55;62.89;97644.55;575583;246;64383;-67
2022/03/28 12:13:00;;;;;;;;;;;;;;;23.54;63.71;97643.72;575571;246;66767;-67
2022/03/28 12:15:30;;;;;;;;;;;;;;;23.52;64.93;97637.84;575594;246;65445;-67
2022/03/28 12:18:01;;;;;;;;;;;;;;;23.52;64.44;97637.02;575602;246;67063;-69
2022/03/28 12:20:30;;;;;;;;;;;;;;;23.52;64.46;97632.48;575623;245;66728;-67
2022/03/28 12:22:58;;;;;;;;;;;;;;;23.52;63.11;97629.80;575641;246;65329;-63
2022/03/28 12:25:38;;;;;;;;;;;;;;;23.52;63.75;97628.97;575584;244;64993;-71
2022/03/28 12:28:05;;;;;;;;;;;;;;;23.51;62.75;97620.12;575359;246;66925;-68
2022/03/28 12:30:35;;;;;;;;;;;;;;;23.51;62.79;97620.12;575429;245;63083;-66
2022/03/28 12:33:09;;;;;;;;;;;;;;;23.51;63.31;97622.00;575541;246;66831;-66
2022/03/28 12:35:39;;;;;;;;;;;;;;;23.50;63.04;97615.84;575616;246;65038;-66
2022/03/28 12:38:08;;;;;;;;;;;;;;;23.51;63.35;97612.07;575401;246;63119;-66
2022/03/28 12:40:36;;;;;;;;;;;;;;;23.51;63.43;97616.64;575440;246;67633;-66
2022/03/28 12:43:04;;;;;;;;;;;;;;;23.51;63.39;97605.91;575598;246;65896;-67
2022/03/28 12:45:32;;;;;;;;;;;;;;;23.50;60.06;97607.80;575628;246;65370;-73
2022/03/28 12:48:01;;;;;;;;;;;;;;;23.52;62.87;97610.19;575570;246;67928;-68
2022/03/28 12:50:30;;;;;;;;;;;;;;;23.53;62.63;97609.92;575628;246;67051;-69
2022/03/28 12:53:15;;;;;;;;;;;;;;;23.52;63.67;97602.14;575661;246;63274;-69
2022/03/28 12:55:43;;;;;;;;;;;;;;;23.52;62.63;97602.97;575568;246;67063;-69
2022/03/28 12:58:12;;;;;;;;;;;;;;;23.52;62.82;97597.59;575643;246;67032;-66
2022/03/28 13:00:41;;;;;;;;;;;;;;;23.51;63.04;97598.66;575587;246;63949;-67